Time;durP1;ratioP1;P1;durP2;ratioP2;P2;SDS_P1;SDS_P2;PMS_P1;PMS_P2;Temp;Humidity;BMP_temperature;BMP_pressure;BME280_temperature;BME280_humidity;BME280_pressure;Samples;Min_cycle;Max_cycle;Signal;HPM_P1;HPM_P2
2022/12/09 00:01:05;;;;;;;;;;;3.60;99.90;;;;;;5095094;28;19969;-76
2022/12/09 00:03:31;;;;;;;;;;;3.60;99.90;;;;;;5093960;28;19908;-76
2022/12/09 00:05:56;;;;;;;;;;;3.50;99.90;;;;;;5096220;28;19923;-77
2022/12/09 00:08:22;;;;;;;;;;;3.60;99.90;;;;;;5091515;28;19912;-77
2022/12/09 00:10:47;;;;;;;;;;;3.60;99.90;;;;;;5092262;28;19912;-76
2022/12/09 00:13:13;;;;;;;;;;;3.60;99.90;;;;;;5091649;28;20350;-76
2022/12/09 00:15:40;;;;;;;;;;;3.60;99.90;;;;;;5092264;28;19922;-78
2022/12/09 00:18:05;;;;;;;;;;;3.50;99.90;;;;;;5091202;28;19911;-76
2022/12/09 00:20:31;;;;;;;;;;;3.50;99.90;;;;;;5091600;28;19915;-76
2022/12/09 00:22:56;;;;;;;;;;;3.50;99.90;;;;;;5091772;28;19920;-77
2022/12/09 00:25:21;;;;;;;;;;;3.50;99.90;;;;;;5089985;28;19961;-77
2022/12/09 00:27:47;;;;;;;;;;;3.50;99.90;;;;;;5090401;28;19912;-77
2022/12/09 00:30:13;;;;;;;;;;;3.50;99.90;;;;;;5091351;28;20555;-77
2022/12/09 00:32:38;;;;;;;;;;;3.50;99.90;;;;;;5092441;28;19954;-77
2022/12/09 00:35:04;;;;;;;;;;;3.50;99.90;;;;;;5090770;28;19912;-77
2022/12/09 00:37:29;;;;;;;;;;;3.40;99.90;;;;;;5090166;28;19915;-76
2022/12/09 00:39:55;;;;;;;;;;;3.40;99.90;;;;;;5090601;28;19917;-77
2022/12/09 00:42:20;;;;;;;;;;;3.40;99.90;;;;;;5090352;28;19920;-76
2022/12/09 00:44:46;;;;;;;;;;;3.40;99.90;;;;;;5090164;28;19912;-76
2022/12/09 00:47:11;;;;;;;;;;;3.40;99.90;;;;;;5090273;28;19931;-77
2022/12/09 00:49:37;;;;;;;;;;;3.40;99.90;;;;;;5090722;28;20324;-76
2022/12/09 00:52:02;;;;;;;;;;;3.40;99.90;;;;;;5090458;28;20292;-77
2022/12/09 00:54:28;;;;;;;;;;;3.30;99.90;;;;;;5091253;28;19916;-77
2022/12/09 00:56:55;;;;;;;;;;;3.30;99.90;;;;;;5091159;28;19916;-76
2022/12/09 00:59:21;;;;;;;;;;;3.30;99.90;;;;;;5091695;28;20084;-76
2022/12/09 01:01:47;;;;;;;;;;;3.30;99.90;;;;;;5090727;28;20331;-76
2022/12/09 01:04:12;;;;;;;;;;;3.40;99.90;;;;;;5090574;28;19912;-76
2022/12/09 01:06:38;;;;;;;;;;;3.40;99.90;;;;;;5091716;28;19908;-76
2022/12/09 01:09:03;;;;;;;;;;;3.30;99.90;;;;;;5089795;28;19908;-77
2022/12/09 01:11:29;;;;;;;;;;;3.30;99.90;;;;;;5090667;28;19916;-77
2022/12/09 01:13:56;;;;;;;;;;;3.30;99.90;;;;;;5091437;28;19912;-77
2022/12/09 01:16:23;;;;;;;;;;;3.30;99.90;;;;;;5090652;28;20435;-78
2022/12/09 01:18:50;;;;;;;;;;;3.40;99.90;;;;;;5091944;28;19930;-77
2022/12/09 01:21:15;;;;;;;;;;;3.30;99.90;;;;;;5092069;28;20037;-77
2022/12/09 01:23:41;;;;;;;;;;;3.30;99.90;;;;;;5090900;28;19972;-77
2022/12/09 01:26:07;;;;;;;;;;;3.30;99.90;;;;;;5089638;28;19912;-77
2022/12/09 01:28:33;;;;;;;;;;;3.30;99.90;;;;;;5089797;28;19912;-75
2022/12/09 01:31:09;;;;;;;;;;;3.30;99.90;;;;;;5091494;28;20572;-76
2022/12/09 01:33:34;;;;;;;;;;;3.30;99.90;;;;;;5091732;28;19947;-77
2022/12/09 01:36:03;;;;;;;;;;;3.30;99.90;;;;;;5091414;28;20283;-76
2022/12/09 01:38:28;;;;;;;;;;;3.30;99.90;;;;;;5091184;28;19967;-77
2022/12/09 01:40:54;;;;;;;;;;;3.30;99.90;;;;;;5091566;28;20390;-77
2022/12/09 01:43:19;;;;;;;;;;;3.30;99.90;;;;;;5091730;28;19916;-77
2022/12/09 01:45:45;;;;;;;;;;;3.40;99.90;;;;;;5092607;28;20010;-77
2022/12/09 01:48:12;;;;;;;;;;;3.20;99.90;;;;;;5091618;28;19998;-77
2022/12/09 01:50:43;;;;;;;;;;;3.30;99.90;;;;;;5091195;28;19934;-77
2022/12/09 01:53:10;;;;;;;;;;;3.30;99.90;;;;;;5086913;28;19912;-76
2022/12/09 01:55:35;;;;;;;;;;;3.30;99.90;;;;;;5092170;28;20206;-77
2022/12/09 01:58:02;;;;;;;;;;;3.30;99.90;;;;;;5089637;28;20374;-76
2022/12/09 02:00:27;;;;;;;;;;;3.30;99.90;;;;;;5089632;28;19931;-77
2022/12/09 02:02:54;;;;;;;;;;;3.30;99.90;;;;;;5089974;28;19920;-76
2022/12/09 02:05:23;;;;;;;;;;;3.40;99.90;;;;;;5090541;28;20399;-77
2022/12/09 02:07:49;;;;;;;;;;;3.30;99.90;;;;;;5091625;28;20388;-77
2022/12/09 02:10:15;;;;;;;;;;;3.30;99.90;;;;;;5090347;28;19915;-77
2022/12/09 02:12:48;;;;;;;;;;;3.30;99.90;;;;;;5091720;28;19912;-77
2022/12/09 02:15:17;;;;;;;;;;;3.30;99.90;;;;;;5091576;28;19915;-76
2022/12/09 02:17:46;;;;;;;;;;;3.30;99.90;;;;;;5090760;28;20422;-76
2022/12/09 02:20:15;;;;;;;;;;;3.30;99.90;;;;;;5090467;28;19912;-77
2022/12/09 02:22:49;;;;;;;;;;;3.30;99.90;;;;;;5092367;28;19916;-77
2022/12/09 02:25:27;;;;;;;;;;;3.30;99.90;;;;;;5092895;28;20324;-77
2022/12/09 02:28:09;;;;;;;;;;;3.30;99.90;;;;;;5091350;28;19919;-77
2022/12/09 02:30:55;;;;;;;;;;;3.30;99.90;;;;;;5093334;28;19930;-77
2022/12/09 02:33:32;;;;;;;;;;;3.30;99.90;;;;;;5060686;28;20002;-76
2022/12/09 02:36:06;;;;;;;;;;;3.20;99.90;;;;;;5090496;28;19965;-77
2022/12/09 02:38:32;;;;;;;;;;;3.20;99.90;;;;;;5088353;28;19908;-76
2022/12/09 02:41:00;;;;;;;;;;;3.20;99.90;;;;;;5088672;28;19912;-76
2022/12/09 02:43:29;;;;;;;;;;;3.20;99.90;;;;;;5090005;28;20220;-77
2022/12/09 02:45:55;;;;;;;;;;;3.20;99.90;;;;;;5088631;28;19934;-77
2022/12/09 02:48:24;;;;;;;;;;;3.20;99.90;;;;;;5090086;28;19908;-77
2022/12/09 02:50:51;;;;;;;;;;;3.30;99.90;;;;;;5089909;28;19958;-77
2022/12/09 02:53:17;;;;;;;;;;;3.20;99.90;;;;;;5090533;28;19908;-76
2022/12/09 02:55:44;;;;;;;;;;;3.20;99.90;;;;;;5088452;28;19941;-76
2022/12/09 02:58:10;;;;;;;;;;;3.20;99.90;;;;;;5090404;28;19912;-77
2022/12/09 03:00:36;;;;;;;;;;;3.20;99.90;;;;;;5090043;28;19927;-77
2022/12/09 03:03:02;;;;;;;;;;;3.20;99.90;;;;;;5090192;28;19927;-76
2022/12/09 03:05:32;;;;;;;;;;;3.10;99.90;;;;;;5087666;28;19934;-77
2022/12/09 03:08:07;;;;;;;;;;;3.10;99.90;;;;;;5087707;28;19912;-76
2022/12/09 03:10:36;;;;;;;;;;;3.10;99.90;;;;;;5088184;28;19919;-76
2022/12/09 03:13:09;;;;;;;;;;;3.10;99.90;;;;;;5087544;28;20284;-77
2022/12/09 03:15:35;;;;;;;;;;;3.10;99.90;;;;;;5089747;28;19912;-76
2022/12/09 03:18:02;;;;;;;;;;;3.10;99.90;;;;;;5090796;28;19965;-77
2022/12/09 03:20:29;;;;;;;;;;;3.20;99.90;;;;;;5092006;28;19912;-77
2022/12/09 03:22:58;;;;;;;;;;;3.20;99.90;;;;;;5091324;28;19920;-77
2022/12/09 03:25:37;;;;;;;;;;;3.20;99.90;;;;;;5093163;28;19943;-76
2022/12/09 03:28:04;;;;;;;;;;;3.20;99.90;;;;;;5091663;28;20296;-76
2022/12/09 03:30:30;;;;;;;;;;;3.20;99.90;;;;;;5091736;28;19922;-76
2022/12/09 03:32:57;;;;;;;;;;;3.20;99.90;;;;;;5093417;28;19909;-77
2022/12/09 03:35:25;;;;;;;;;;;3.30;99.90;;;;;;5092082;28;20261;-76
2022/12/09 03:37:51;;;;;;;;;;;3.20;99.90;;;;;;5092963;28;19972;-76
2022/12/09 03:40:21;;;;;;;;;;;3.20;99.90;;;;;;5091946;28;20394;-77
2022/12/09 03:42:49;;;;;;;;;;;3.20;99.90;;;;;;5092337;28;19920;-76
2022/12/09 03:45:16;;;;;;;;;;;3.20;99.90;;;;;;5091501;28;19919;-76
2022/12/09 03:47:42;;;;;;;;;;;3.20;99.90;;;;;;5091754;28;19908;-77
2022/12/09 03:50:08;;;;;;;;;;;3.20;99.90;;;;;;5093393;28;19919;-77
2022/12/09 03:52:33;;;;;;;;;;;3.20;99.90;;;;;;5091655;28;19908;-76
2022/12/09 03:55:06;;;;;;;;;;;3.20;99.90;;;;;;5092092;28;19916;-76
2022/12/09 03:57:34;;;;;;;;;;;3.20;99.90;;;;;;5092833;28;19912;-77
2022/12/09 04:00:01;;;;;;;;;;;3.20;99.90;;;;;;5093586;28;19920;-77
2022/12/09 04:02:27;;;;;;;;;;;3.20;99.90;;;;;;5092391;28;19955;-76
2022/12/09 04:04:53;;;;;;;;;;;3.20;99.90;;;;;;5094470;28;19919;-77
2022/12/09 04:07:18;;;;;;;;;;;3.20;99.90;;;;;;5092177;28;19916;-76
2022/12/09 04:09:44;;;;;;;;;;;3.20;99.90;;;;;;5092884;28;19912;-77
2022/12/09 04:12:10;;;;;;;;;;;3.10;99.90;;;;;;5093019;28;19908;-77
2022/12/09 04:14:35;;;;;;;;;;;3.10;99.90;;;;;;5093524;28;19954;-77
2022/12/09 04:17:01;;;;;;;;;;;3.10;99.90;;;;;;5092314;28;20438;-77
2022/12/09 04:19:27;;;;;;;;;;;3.10;99.90;;;;;;5093066;28;19912;-76
2022/12/09 04:21:53;;;;;;;;;;;3.00;99.90;;;;;;5093592;28;20437;-77
2022/12/09 04:24:18;;;;;;;;;;;3.00;99.90;;;;;;5092256;28;19973;-77
2022/12/09 04:26:44;;;;;;;;;;;3.00;99.90;;;;;;5093427;28;19912;-76
2022/12/09 04:29:10;;;;;;;;;;;3.10;99.90;;;;;;5093219;28;20083;-77
2022/12/09 04:31:36;;;;;;;;;;;3.00;99.90;;;;;;5093426;28;20714;-77
2022/12/09 04:34:01;;;;;;;;;;;3.00;99.90;;;;;;5092673;28;20419;-77
2022/12/09 04:36:27;;;;;;;;;;;3.00;99.90;;;;;;5093568;28;19916;-77
2022/12/09 04:38:52;;;;;;;;;;;3.00;99.90;;;;;;5093397;28;19912;-76
2022/12/09 04:41:18;;;;;;;;;;;2.90;99.90;;;;;;5091773;28;20308;-76
2022/12/09 04:43:43;;;;;;;;;;;2.90;99.90;;;;;;5091394;28;19908;-76
2022/12/09 04:46:10;;;;;;;;;;;2.90;99.90;;;;;;5091444;28;19916;-76
2022/12/09 04:48:36;;;;;;;;;;;2.90;99.90;;;;;;5091537;28;19908;-77
2022/12/09 04:51:01;;;;;;;;;;;2.90;99.90;;;;;;5091653;28;19919;-77
2022/12/09 04:53:27;;;;;;;;;;;2.90;99.90;;;;;;5092686;28;19912;-76
2022/12/09 04:55:59;;;;;;;;;;;2.90;99.90;;;;;;5093054;28;20384;-77
2022/12/09 04:58:25;;;;;;;;;;;2.90;99.90;;;;;;5093650;28;20188;-75
2022/12/09 05:00:51;;;;;;;;;;;2.80;99.90;;;;;;5090897;28;19920;-76
2022/12/09 05:03:16;;;;;;;;;;;2.70;99.90;;;;;;5088624;28;20300;-76
2022/12/09 05:05:42;;;;;;;;;;;2.60;99.90;;;;;;5089136;28;19912;-76
2022/12/09 05:08:07;;;;;;;;;;;2.60;99.90;;;;;;5089355;28;19908;-76
2022/12/09 05:10:33;;;;;;;;;;;2.50;99.90;;;;;;5089638;28;20422;-76
2022/12/09 05:12:58;;;;;;;;;;;2.50;99.90;;;;;;5089172;28;19919;-73
2022/12/09 05:15:24;;;;;;;;;;;2.50;99.90;;;;;;5087622;28;19912;-76
2022/12/09 05:17:49;;;;;;;;;;;2.50;99.90;;;;;;5089693;28;19919;-77
2022/12/09 05:20:15;;;;;;;;;;;2.40;99.90;;;;;;5087414;28;20388;-76
2022/12/09 05:22:40;;;;;;;;;;;2.40;99.90;;;;;;5088170;28;19920;-76
2022/12/09 05:25:06;;;;;;;;;;;2.30;99.90;;;;;;5088531;28;19912;-76
2022/12/09 05:27:32;;;;;;;;;;;2.30;99.90;;;;;;5088288;28;19908;-76
2022/12/09 05:29:57;;;;;;;;;;;2.30;99.90;;;;;;5089814;28;19912;-76
2022/12/09 05:32:23;;;;;;;;;;;2.30;99.90;;;;;;5087869;28;19909;-77
2022/12/09 05:34:48;;;;;;;;;;;2.40;99.90;;;;;;5088210;28;19963;-77
2022/12/09 05:37:14;;;;;;;;;;;2.40;99.90;;;;;;5087995;28;19912;-76
2022/12/09 05:39:40;;;;;;;;;;;2.40;99.90;;;;;;5088596;28;19916;-76
2022/12/09 05:42:05;;;;;;;;;;;2.40;99.90;;;;;;5089242;28;20058;-76
2022/12/09 05:44:31;;;;;;;;;;;2.50;99.90;;;;;;5089015;28;19927;-76
2022/12/09 05:46:56;;;;;;;;;;;2.50;99.90;;;;;;5090427;28;20380;-77
2022/12/09 05:49:22;;;;;;;;;;;2.50;99.90;;;;;;5089136;28;20006;-77
2022/12/09 05:51:47;;;;;;;;;;;2.50;99.90;;;;;;5088335;28;20334;-76
2022/12/09 05:54:13;;;;;;;;;;;2.50;99.90;;;;;;5090302;28;20374;-76
2022/12/09 05:56:38;;;;;;;;;;;2.50;99.90;;;;;;5088979;28;19965;-76
2022/12/09 05:59:04;;;;;;;;;;;2.50;99.90;;;;;;5087955;28;19931;-76
2022/12/09 06:01:30;;;;;;;;;;;2.50;99.90;;;;;;5089113;28;19923;-76
2022/12/09 06:03:55;;;;;;;;;;;2.40;99.90;;;;;;5089640;28;19920;-77
2022/12/09 06:06:22;;;;;;;;;;;2.50;99.90;;;;;;5087781;28;20406;-77
2022/12/09 06:08:48;;;;;;;;;;;2.50;99.90;;;;;;5089133;28;19920;-76
2022/12/09 06:11:15;;;;;;;;;;;2.50;99.90;;;;;;5088898;28;20449;-77
2022/12/09 06:13:40;;;;;;;;;;;2.60;99.90;;;;;;5088991;28;19915;-77
2022/12/09 06:16:07;;;;;;;;;;;2.60;99.90;;;;;;5089118;28;20204;-77
2022/12/09 06:18:33;;;;;;;;;;;2.60;99.90;;;;;;5088186;28;19927;-77
2022/12/09 06:20:58;;;;;;;;;;;2.70;99.90;;;;;;5089085;28;19912;-77
2022/12/09 06:23:24;;;;;;;;;;;2.70;99.90;;;;;;5088774;28;19954;-76
2022/12/09 06:25:49;;;;;;;;;;;2.70;99.90;;;;;;5088248;28;19916;-77
2022/12/09 06:28:15;;;;;;;;;;;2.80;99.90;;;;;;5086851;28;20295;-76
2022/12/09 06:30:40;;;;;;;;;;;2.80;99.90;;;;;;5087157;28;20392;-76
2022/12/09 06:33:06;;;;;;;;;;;2.80;99.90;;;;;;5088569;28;19915;-77
2022/12/09 06:35:32;;;;;;;;;;;2.80;99.90;;;;;;5086022;28;19999;-76
2022/12/09 06:37:58;;;;;;;;;;;2.80;99.90;;;;;;5087037;28;19912;-76
2022/12/09 06:40:23;;;;;;;;;;;2.80;99.90;;;;;;5088924;28;19919;-76
2022/12/09 06:42:49;;;;;;;;;;;2.80;99.90;;;;;;5087661;28;19924;-76
2022/12/09 06:45:16;;;;;;;;;;;2.80;99.90;;;;;;5086475;28;20296;-76
2022/12/09 06:47:41;;;;;;;;;;;2.80;99.90;;;;;;5088483;28;19969;-76
2022/12/09 06:50:08;;;;;;;;;;;2.80;99.90;;;;;;5088462;28;20501;-76
2022/12/09 06:52:34;;;;;;;;;;;2.80;99.90;;;;;;5090688;28;19950;-77
2022/12/09 06:55:00;;;;;;;;;;;2.80;99.90;;;;;;5092882;28;19916;-76
2022/12/09 06:57:25;;;;;;;;;;;2.80;99.90;;;;;;5092616;28;20390;-77
2022/12/09 06:59:51;;;;;;;;;;;2.80;99.90;;;;;;5092915;28;19924;-77
2022/12/09 07:02:16;;;;;;;;;;;2.90;99.90;;;;;;5092594;28;19938;-76
2022/12/09 07:04:42;;;;;;;;;;;2.90;99.90;;;;;;5090695;28;19993;-77
2022/12/09 07:07:09;;;;;;;;;;;2.90;99.90;;;;;;5089367;28;19908;-77
2022/12/09 07:09:34;;;;;;;;;;;3.00;99.90;;;;;;5091163;28;19908;-77
2022/12/09 07:12:00;;;;;;;;;;;3.00;99.90;;;;;;5090961;28;19912;-76
2022/12/09 07:14:25;;;;;;;;;;;3.00;99.90;;;;;;5092330;28;19912;-77
2022/12/09 07:16:51;;;;;;;;;;;2.90;99.90;;;;;;5091191;28;20359;-76
2022/12/09 07:19:17;;;;;;;;;;;2.90;99.90;;;;;;5092957;28;20304;-77
2022/12/09 07:21:43;;;;;;;;;;;3.00;99.90;;;;;;5091884;28;20000;-77
2022/12/09 07:24:08;;;;;;;;;;;3.00;99.90;;;;;;5093847;28;20451;-77
2022/12/09 07:26:34;;;;;;;;;;;3.00;99.90;;;;;;5093426;28;20402;-77
2022/12/09 07:29:00;;;;;;;;;;;3.10;99.90;;;;;;5090563;28;19912;-76
2022/12/09 07:31:26;;;;;;;;;;;3.10;99.90;;;;;;5091376;28;19919;-76
2022/12/09 07:33:53;;;;;;;;;;;3.20;99.90;;;;;;5089091;28;19951;-77
2022/12/09 07:36:19;;;;;;;;;;;3.20;99.90;;;;;;5091842;28;19915;-76
2022/12/09 07:38:45;;;;;;;;;;;3.30;99.90;;;;;;5092034;28;19912;-77
2022/12/09 07:41:16;;;;;;;;;;;3.40;99.90;;;;;;5089951;28;20270;-77
2022/12/09 07:43:45;;;;;;;;;;;3.40;99.90;;;;;;5091590;28;19916;-77
2022/12/09 07:46:11;;;;;;;;;;;3.40;99.90;;;;;;5090548;28;19919;-77
2022/12/09 07:48:37;;;;;;;;;;;3.40;99.90;;;;;;5090356;28;19912;-77
2022/12/09 07:51:03;;;;;;;;;;;3.40;99.90;;;;;;5090595;28;20289;-76
2022/12/09 07:53:29;;;;;;;;;;;3.40;99.90;;;;;;5091765;28;19912;-77
2022/12/09 07:55:55;;;;;;;;;;;3.50;99.90;;;;;;5092340;28;19966;-77
2022/12/09 07:58:21;;;;;;;;;;;3.50;99.90;;;;;;5091125;28;20674;-77
2022/12/09 08:00:46;;;;;;;;;;;3.60;99.90;;;;;;5091725;28;19924;-76
2022/12/09 08:03:12;;;;;;;;;;;3.60;99.90;;;;;;5089523;28;19920;-77
2022/12/09 08:05:47;;;;;;;;;;;3.70;99.90;;;;;;5089472;28;20030;-76
2022/12/09 08:08:13;;;;;;;;;;;3.80;99.90;;;;;;5090784;28;19912;-76
2022/12/09 08:10:38;;;;;;;;;;;3.80;99.90;;;;;;5090019;28;20296;-77
2022/12/09 08:13:04;;;;;;;;;;;3.80;99.90;;;;;;5089298;28;19912;-77
2022/12/09 08:15:29;;;;;;;;;;;3.70;99.90;;;;;;5089769;28;20326;-77
2022/12/09 08:17:55;;;;;;;;;;;3.80;99.90;;;;;;5089908;28;19915;-77
2022/12/09 08:20:21;;;;;;;;;;;3.90;99.90;;;;;;5091488;28;20147;-76
2022/12/09 08:22:46;;;;;;;;;;;3.80;99.90;;;;;;5091828;28;19920;-76
2022/12/09 08:25:12;;;;;;;;;;;3.80;99.90;;;;;;5091922;28;20299;-77
2022/12/09 08:27:37;;;;;;;;;;;3.90;99.90;;;;;;5090279;28;20381;-76
2022/12/09 08:30:03;;;;;;;;;;;3.90;99.90;;;;;;5092071;28;19922;-77
2022/12/09 08:32:29;;;;;;;;;;;3.90;99.90;;;;;;5089751;28;19912;-76
2022/12/09 08:34:55;;;;;;;;;;;3.90;99.90;;;;;;5090486;28;19923;-77
2022/12/09 08:37:21;;;;;;;;;;;3.90;99.90;;;;;;5091478;28;19951;-76
2022/12/09 08:39:46;;;;;;;;;;;3.90;99.90;;;;;;5091471;28;19912;-76
2022/12/09 08:42:12;;;;;;;;;;;3.90;99.90;;;;;;5090562;28;19961;-76
2022/12/09 08:44:38;;;;;;;;;;;3.90;99.90;;;;;;5091313;28;19912;-76
2022/12/09 08:47:03;;;;;;;;;;;3.90;99.90;;;;;;5090995;28;19982;-77
2022/12/09 08:49:29;;;;;;;;;;;4.00;99.90;;;;;;5089482;28;19924;-76
2022/12/09 08:51:55;;;;;;;;;;;4.10;99.90;;;;;;5089930;28;19919;-77
2022/12/09 08:54:20;;;;;;;;;;;4.10;99.90;;;;;;5090717;28;20358;-76
2022/12/09 08:56:47;;;;;;;;;;;4.10;99.90;;;;;;5088975;28;19912;-76
2022/12/09 08:59:13;;;;;;;;;;;4.20;99.90;;;;;;5090791;28;19916;-76
2022/12/09 09:01:38;;;;;;;;;;;4.10;99.90;;;;;;5090238;28;20375;-75
2022/12/09 09:04:08;;;;;;;;;;;4.10;99.90;;;;;;5088568;28;19915;-76
2022/12/09 09:06:35;;;;;;;;;;;4.10;99.90;;;;;;5090492;28;19947;-78
2022/12/09 09:09:00;;;;;;;;;;;4.20;99.90;;;;;;5089240;28;19912;-76
2022/12/09 09:11:27;;;;;;;;;;;4.20;99.90;;;;;;5090126;28;19931;-76
2022/12/09 09:13:52;;;;;;;;;;;4.20;99.90;;;;;;5090464;28;19915;-76
2022/12/09 09:16:19;;;;;;;;;;;4.10;99.90;;;;;;5090137;28;19912;-76
2022/12/09 09:18:45;;;;;;;;;;;4.10;99.90;;;;;;5090531;28;19912;-76
2022/12/09 09:21:11;;;;;;;;;;;4.10;99.90;;;;;;5089351;28;19912;-76
2022/12/09 09:23:37;;;;;;;;;;;4.10;99.90;;;;;;5089433;28;20033;-76
2022/12/09 09:26:02;;;;;;;;;;;4.10;99.90;;;;;;5091093;28;19918;-77
2022/12/09 09:28:28;;;;;;;;;;;4.00;99.90;;;;;;5092459;28;20365;-76
2022/12/09 09:31:01;;;;;;;;;;;4.00;99.90;;;;;;5089946;28;19919;-76
2022/12/09 09:33:26;;;;;;;;;;;4.00;99.90;;;;;;5091933;28;19919;-76
2022/12/09 09:35:55;;;;;;;;;;;4.10;99.90;;;;;;5092091;28;19912;-76
2022/12/09 09:38:21;;;;;;;;;;;4.10;99.90;;;;;;5091006;28;20378;-76
2022/12/09 09:40:46;;;;;;;;;;;4.10;99.90;;;;;;5091114;28;19999;-76
2022/12/09 09:43:15;;;;;;;;;;;4.20;99.90;;;;;;5090050;28;19924;-75
2022/12/09 09:45:41;;;;;;;;;;;4.30;99.90;;;;;;5089808;28;19908;-76
2022/12/09 09:48:09;;;;;;;;;;;4.30;99.90;;;;;;5091503;28;19912;-76
2022/12/09 09:50:37;;;;;;;;;;;4.30;99.90;;;;;;5091846;28;19908;-77
2022/12/09 09:53:23;;;;;;;;;;;4.20;99.90;;;;;;5092433;28;19912;-77
2022/12/09 09:55:57;;;;;;;;;;;4.20;99.90;;;;;;5088666;28;19966;-77
2022/12/09 09:58:29;;;;;;;;;;;4.20;99.90;;;;;;5089922;28;20342;-76
2022/12/09 10:01:03;;;;;;;;;;;4.20;99.90;;;;;;5088262;28;19982;-77
2022/12/09 10:03:46;;;;;;;;;;;4.20;99.90;;;;;;5088927;28;20041;-76
2022/12/09 10:06:28;;;;;;;;;;;4.20;99.90;;;;;;5087984;28;19918;-77
2022/12/09 10:09:12;;;;;;;;;;;4.20;99.90;;;;;;5087805;28;19916;-76
2022/12/09 10:11:39;;;;;;;;;;;4.50;99.90;;;;;;5088307;28;20430;-77
2022/12/09 10:14:13;;;;;;;;;;;4.50;99.90;;;;;;5089347;28;19965;-77
2022/12/09 10:16:39;;;;;;;;;;;4.60;99.90;;;;;;5087460;28;20304;-77
2022/12/09 10:19:10;;;;;;;;;;;4.60;99.90;;;;;;5089157;28;19912;-76
2022/12/09 10:21:39;;;;;;;;;;;4.60;99.90;;;;;;5087510;28;19923;-77
2022/12/09 10:24:13;;;;;;;;;;;4.60;99.90;;;;;;5088733;28;20031;-77
2022/12/09 10:26:39;;;;;;;;;;;4.60;99.90;;;;;;5088922;28;19947;-78
2022/12/09 10:29:10;;;;;;;;;;;4.80;99.90;;;;;;5086062;28;20482;-77
2022/12/09 10:31:35;;;;;;;;;;;4.90;99.90;;;;;;5086947;28;20303;-76
2022/12/09 10:34:01;;;;;;;;;;;4.80;99.90;;;;;;5089180;28;19912;-77
2022/12/09 10:36:28;;;;;;;;;;;4.80;99.90;;;;;;5089935;28;19908;-77
2022/12/09 10:38:54;;;;;;;;;;;4.70;99.90;;;;;;5088556;28;19953;-77
2022/12/09 10:44:18;;;;;;;;;;;4.70;99.90;;;;;;5088971;28;19962;-76
2022/12/09 10:46:44;;;;;;;;;;;4.70;99.90;;;;;;5087082;28;19915;-76
2022/12/09 10:49:17;;;;;;;;;;;4.70;99.90;;;;;;5088322;28;20025;-76
2022/12/09 10:51:47;;;;;;;;;;;4.70;99.90;;;;;;5088672;28;19912;-76
2022/12/09 10:54:21;;;;;;;;;;;4.70;99.90;;;;;;5087111;28;19908;-77
2022/12/09 10:57:01;;;;;;;;;;;4.70;99.90;;;;;;5089347;28;20027;-77
2022/12/09 10:59:28;;;;;;;;;;;4.70;99.90;;;;;;5088016;28;20103;-77
2022/12/09 11:01:55;;;;;;;;;;;4.80;99.90;;;;;;5087625;28;19920;-76
2022/12/09 11:04:27;;;;;;;;;;;4.80;99.90;;;;;;5089726;28;19912;-77
2022/12/09 11:06:57;;;;;;;;;;;4.90;99.90;;;;;;5089254;28;19912;-77
2022/12/09 11:09:27;;;;;;;;;;;5.00;99.90;;;;;;5088364;28;19918;-77
2022/12/09 11:11:52;;;;;;;;;;;5.00;99.90;;;;;;5087825;28;19908;-76
2022/12/09 11:14:23;;;;;;;;;;;5.00;99.90;;;;;;5087806;28;19919;-76
2022/12/09 11:16:51;;;;;;;;;;;4.90;99.90;;;;;;5088522;28;19989;-77
2022/12/09 11:19:17;;;;;;;;;;;4.90;99.90;;;;;;5086789;28;20377;-76
2022/12/09 11:21:43;;;;;;;;;;;4.80;99.90;;;;;;5088351;28;19917;-77
2022/12/09 11:24:19;;;;;;;;;;;4.80;99.90;;;;;;5090063;28;19919;-76
2022/12/09 11:26:44;;;;;;;;;;;4.80;99.90;;;;;;5087915;28;19912;-76
2022/12/09 11:29:14;;;;;;;;;;;4.80;99.90;;;;;;5089382;28;20142;-77
2022/12/09 11:31:40;;;;;;;;;;;4.80;99.90;;;;;;5089723;28;19912;-76
2022/12/09 11:34:17;;;;;;;;;;;4.80;99.90;;;;;;5088976;28;19912;-77
2022/12/09 11:36:45;;;;;;;;;;;4.80;99.90;;;;;;5087376;28;20003;-77
2022/12/09 11:39:14;;;;;;;;;;;4.70;99.90;;;;;;5090150;28;19919;-77
2022/12/09 11:44:29;;;;;;;;;;;4.60;99.90;;;;;;5092092;28;19934;-76
2022/12/09 11:46:55;;;;;;;;;;;4.60;99.90;;;;;;5091913;28;20002;-76
2022/12/09 11:49:20;;;;;;;;;;;4.50;99.90;;;;;;5091682;28;19967;-76
2022/12/09 11:51:58;;;;;;;;;;;4.60;99.90;;;;;;5092374;28;19943;-77
2022/12/09 11:54:26;;;;;;;;;;;4.60;99.90;;;;;;5090082;28;19912;-76
2022/12/09 11:56:53;;;;;;;;;;;4.50;99.90;;;;;;5092897;28;20373;-77
2022/12/09 11:59:22;;;;;;;;;;;4.50;99.90;;;;;;5092190;28;20414;-77
2022/12/09 12:01:50;;;;;;;;;;;4.60;99.90;;;;;;5091755;28;19924;-77
2022/12/09 12:04:29;;;;;;;;;;;4.40;99.90;;;;;;5091753;28;20296;-76
2022/12/09 12:07:00;;;;;;;;;;;4.40;99.90;;;;;;5091129;28;20011;-77
2022/12/09 12:09:40;;;;;;;;;;;4.40;99.90;;;;;;5090636;28;19962;-76
2022/12/09 12:12:23;;;;;;;;;;;4.50;99.90;;;;;;5091722;28;19956;-77
2022/12/09 12:14:48;;;;;;;;;;;4.50;99.90;;;;;;5091101;28;19912;-77
2022/12/09 12:17:40;;;;;;;;;;;4.50;99.90;;;;;;5091845;28;20269;-76
2022/12/09 12:20:08;;;;;;;;;;;4.50;99.90;;;;;;5086482;28;20265;-76
2022/12/09 12:22:34;;;;;;;;;;;4.50;99.90;;;;;;5089595;28;19920;-76
2022/12/09 12:25:18;;;;;;;;;;;4.40;99.90;;;;;;5088866;28;19913;-77
2022/12/09 12:27:53;;;;;;;;;;;4.40;99.90;;;;;;5089414;28;19912;-76
2022/12/09 12:30:20;;;;;;;;;;;4.30;99.90;;;;;;5088378;28;19912;-75
2022/12/09 12:33:03;;;;;;;;;;;4.30;99.90;;;;;;5089766;28;19939;-76
2022/12/09 12:35:36;;;;;;;;;;;4.30;99.90;;;;;;5089469;28;19948;-77
2022/12/09 12:38:01;;;;;;;;;;;4.30;99.90;;;;;;5088489;28;20469;-75
2022/12/09 12:40:45;;;;;;;;;;;4.30;99.90;;;;;;5088349;28;19908;-76
2022/12/09 12:46:26;;;;;;;;;;;4.30;99.90;;;;;;5088775;28;19931;-75
2022/12/09 12:49:10;;;;;;;;;;;4.30;99.90;;;;;;5088044;28;19912;-77
2022/12/09 12:52:05;;;;;;;;;;;4.30;99.90;;;;;;5087699;28;19908;-76
2022/12/09 12:54:45;;;;;;;;;;;4.30;99.90;;;;;;5075053;28;19955;-76
2022/12/09 12:57:18;;;;;;;;;;;4.20;99.90;;;;;;5088317;28;19935;-76
2022/12/09 12:59:58;;;;;;;;;;;4.20;99.90;;;;;;5090121;28;19931;-76
2022/12/09 13:02:42;;;;;;;;;;;4.20;99.90;;;;;;5088624;28;19973;-76
2022/12/09 13:05:24;;;;;;;;;;;4.20;99.90;;;;;;5089854;28;19919;-77
2022/12/09 13:07:51;;;;;;;;;;;4.20;99.90;;;;;;5089839;28;20306;-76
2022/12/09 13:10:19;;;;;;;;;;;4.20;99.90;;;;;;5089521;28;20315;-75
2022/12/09 13:12:53;;;;;;;;;;;4.20;99.90;;;;;;5089747;28;19944;-76
2022/12/09 13:15:31;;;;;;;;;;;4.20;99.90;;;;;;5088601;28;19908;-76
2022/12/09 13:17:59;;;;;;;;;;;4.30;99.90;;;;;;5089544;28;19912;-76
2022/12/09 13:20:27;;;;;;;;;;;4.30;99.90;;;;;;5091149;28;19912;-76
2022/12/09 13:22:59;;;;;;;;;;;4.40;99.90;;;;;;5090872;28;19920;-76
2022/12/09 13:25:35;;;;;;;;;;;4.40;99.90;;;;;;5090515;28;19927;-76
2022/12/09 13:28:06;;;;;;;;;;;4.50;99.90;;;;;;5087814;28;19908;-76
2022/12/09 13:30:38;;;;;;;;;;;4.60;99.90;;;;;;5090072;28;19986;-77
2022/12/09 13:33:16;;;;;;;;;;;4.70;99.90;;;;;;5088074;28;19912;-75
2022/12/09 13:35:47;;;;;;;;;;;4.80;99.90;;;;;;5088392;28;20332;-76
2022/12/09 13:38:31;;;;;;;;;;;4.90;99.90;;;;;;5089468;28;19914;-76
2022/12/09 13:40:56;;;;;;;;;;;4.90;99.90;;;;;;5089562;28;20650;-76
2022/12/09 13:43:32;;;;;;;;;;;5.00;99.90;;;;;;5088519;28;20006;-76
2022/12/09 13:45:58;;;;;;;;;;;5.00;99.90;;;;;;5088349;28;20403;-76
2022/12/09 13:48:36;;;;;;;;;;;5.00;99.90;;;;;;5089834;28;19912;-76
2022/12/09 13:51:02;;;;;;;;;;;5.10;99.90;;;;;;5087110;28;19912;-76
2022/12/09 13:53:29;;;;;;;;;;;5.10;99.90;;;;;;5089696;28;19919;-76
2022/12/09 13:56:07;;;;;;;;;;;5.10;99.90;;;;;;5088500;28;19961;-76
2022/12/09 13:58:42;;;;;;;;;;;5.10;99.90;;;;;;5088779;28;19912;-76
2022/12/09 14:01:07;;;;;;;;;;;5.10;99.90;;;;;;5089363;28;19939;-76
2022/12/09 14:03:34;;;;;;;;;;;5.10;99.90;;;;;;5088114;28;19920;-76
2022/12/09 14:06:02;;;;;;;;;;;5.10;99.90;;;;;;5090212;28;20740;-75
2022/12/09 14:08:31;;;;;;;;;;;5.20;99.90;;;;;;5088751;28;19948;-75
2022/12/09 14:10:57;;;;;;;;;;;5.20;99.90;;;;;;5090681;28;19908;-76
2022/12/09 14:13:25;;;;;;;;;;;5.30;99.90;;;;;;5090017;28;19915;-76
2022/12/09 14:16:09;;;;;;;;;;;5.30;99.90;;;;;;5089759;28;19927;-75
2022/12/09 14:18:35;;;;;;;;;;;5.20;99.90;;;;;;5088373;28;19989;-75
2022/12/09 14:21:16;;;;;;;;;;;5.20;99.90;;;;;;5088487;28;20380;-74
2022/12/09 14:24:00;;;;;;;;;;;5.20;99.90;;;;;;5089216;28;20404;-75
2022/12/09 14:26:36;;;;;;;;;;;5.10;99.90;;;;;;5089237;28;20200;-76
2022/12/09 14:29:02;;;;;;;;;;;5.10;99.90;;;;;;5090993;28;19912;-75
2022/12/09 14:31:46;;;;;;;;;;;5.00;99.90;;;;;;5089838;28;19919;-75
2022/12/09 14:34:20;;;;;;;;;;;5.00;99.90;;;;;;5088775;28;19923;-75
2022/12/09 14:36:50;;;;;;;;;;;5.20;99.90;;;;;;5086972;28;20301;-75
2022/12/09 14:39:20;;;;;;;;;;;5.10;99.90;;;;;;5087302;28;19985;-75
2022/12/09 14:41:53;;;;;;;;;;;5.20;99.90;;;;;;5089258;28;20389;-75
2022/12/09 14:44:29;;;;;;;;;;;5.10;99.90;;;;;;5087349;28;19916;-75
2022/12/09 14:47:10;;;;;;;;;;;5.10;99.90;;;;;;5089394;28;19919;-76